This is the latest recevied weather packets stored in our database for station/object DG4MND-4. If no packets are shown the sender has not sent any weather packets the latest 10 day(s).
| Time | Temp. | Humidity | Pressure | Rain* | Wind** | Luminosity | Snow |
|---|---|---|---|---|---|---|---|
| 1777827058 | 23.33° C | 33% | 1012.2 hPa | 0 mm | - | - | - |
| 1777826457 | 23.89° C | 32% | 1012.2 hPa | 0 mm | - | - | - |
| 1777825853 | 24.44° C | 31% | 1012.2 hPa | 0 mm | - | - | - |
| 1777825250 | 25° C | 31% | 1012.1 hPa | 0 mm | - | - | - |
| 1777824643 | 25.56° C | 29% | 1012.2 hPa | 0 mm | - | - | - |
| 1777824040 | 25.56° C | 30% | 1012.1 hPa | 0 mm | - | - | - |
| 1777823437 | 26.11° C | 29% | 1012.2 hPa | 0 mm | - | - | - |
| 1777822834 | 25.56° C | 30% | 1012.1 hPa | 0 mm | - | - | - |
| 1777822230 | 24.44° C | 31% | 1012.2 hPa | 0 mm | - | - | - |
| 1777821626 | 26.11° C | 31% | 1012.3 hPa | 0 mm | - | - | - |
| 1777821023 | 25° C | 33% | 1012.4 hPa | 0 mm | - | - | - |
| 1777820422 | 25.56° C | 32% | 1012.5 hPa | 0 mm | - | - | - |
| 1777819816 | 26.11° C | 30% | 1012.4 hPa | 0 mm | - | - | - |
| 1777819273 | 26.11° C | 30% | 1012.4 hPa | 0 mm | - | - | - |
| 1777818669 | 25.56° C | 30% | 1012.5 hPa | 0 mm | - | - | - |
| 1777818066 | 24.44° C | 32% | 1012.7 hPa | 0 mm | - | - | - |
| 1777817465 | 23.89° C | 34% | 1012.7 hPa | 0 mm | - | - | - |
| 1777816859 | 23.89° C | 35% | 1012.9 hPa | 0 mm | - | - | - |
| 1777816261 | 23.89° C | 34% | 1012.9 hPa | 0 mm | - | - | - |
| 1777815657 | 23.89° C | 35% | 1013.1 hPa | 0 mm | - | - | - |
| 1777815049 | 23.89° C | 35% | 1013.2 hPa | 0 mm | - | - | - |
| 1777814445 | 23.89° C | 32% | 1013.2 hPa | 0 mm | - | - | - |
| 1777813845 | 23.89° C | 33% | 1013.3 hPa | 0 mm | - | - | - |
| 1777813242 | 23.33° C | 33% | 1013.3 hPa | 0 mm | - | - | - |
| 1777812635 | 23.89° C | 34% | 1013.4 hPa | 0 mm | - | - | - |
* Rain latest hour (hover to see other rain measurements)
** Current wind speed in m/s (hover to see current wind gust speed)